createdAt,value
2018-12-04T00:01:13.554Z,79.36
2018-12-04T00:03:44.221Z,79.73
2018-12-04T00:06:14.397Z,79.94
2018-12-04T00:08:44.642Z,79.20
2018-12-04T00:11:15.653Z,79.28
2018-12-04T00:13:46.020Z,78.57
2018-12-04T00:16:17.156Z,78.48
2018-12-04T00:18:47.979Z,78.61
2018-12-04T00:21:18.200Z,77.84
2018-12-04T00:23:48.748Z,77.87
2018-12-04T00:26:20.155Z,77.66
2018-12-04T00:28:50.470Z,77.45
2018-12-04T00:31:21.633Z,77.40
2018-12-04T00:33:52.076Z,76.88
2018-12-04T00:36:22.081Z,76.40
2018-12-04T00:38:52.808Z,76.27
2018-12-04T00:41:23.120Z,75.87
2018-12-04T00:43:53.473Z,76.31
2018-12-04T00:46:24.308Z,75.14
2018-12-04T00:48:54.571Z,75.82
2018-12-04T00:51:24.425Z,75.67
2018-12-04T00:53:55.901Z,75.29
2018-12-04T00:56:27.249Z,75.28
2018-12-04T00:58:57.778Z,75.79
2018-12-04T01:01:28.002Z,75.16
2018-12-04T01:03:58.468Z,75.66
2018-12-04T01:06:28.669Z,75.98
2018-12-04T01:09:00.421Z,76.10
2018-12-04T01:11:30.627Z,76.87
2018-12-04T01:14:01.855Z,77.13
2018-12-04T01:16:32.288Z,78.07
2018-12-04T01:19:02.570Z,78.63
2018-12-04T01:21:33.409Z,79.34
2018-12-04T01:24:04.947Z,79.09
2018-12-04T01:26:35.121Z,79.18
2018-12-04T01:29:05.549Z,80.11
2018-12-04T01:31:36.897Z,79.93
2018-12-04T01:34:07.635Z,81.54
2018-12-04T01:36:38.283Z,81.41
2018-12-04T01:39:09.487Z,82.35
2018-12-04T01:41:39.627Z,83.05
2018-12-04T01:44:09.872Z,83.36
2018-12-04T01:46:40.644Z,83.88
2018-12-04T01:49:12.598Z,84.87
2018-12-04T01:51:43.420Z,84.62
2018-12-04T01:54:14.113Z,83.51
2018-12-04T01:56:44.153Z,83.06
2018-12-04T01:59:15.241Z,82.91
2018-12-04T02:01:46.292Z,82.82
2018-12-04T02:04:16.853Z,82.23
2018-12-04T02:06:46.881Z,83.10
2018-12-04T02:09:17.790Z,83.47
2018-12-04T02:11:48.253Z,85.03
2018-12-04T02:14:18.421Z,85.88
2018-12-04T02:16:48.585Z,85.33
2018-12-04T02:19:19.056Z,85.69
2018-12-04T02:21:49.944Z,85.49
2018-12-04T02:24:20.837Z,85.09
2018-12-04T02:26:50.948Z,85.43
2018-12-04T02:29:21.206Z,85.44
2018-12-04T02:31:51.548Z,85.55
2018-12-04T02:34:22.597Z,85.54
2018-12-04T02:36:53.184Z,85.65
2018-12-04T02:39:23.966Z,84.94
2018-12-04T02:41:55.415Z,84.76
2018-12-04T02:44:25.544Z,84.94
2018-12-04T02:46:55.760Z,84.37
2018-12-04T02:49:25.950Z,83.95
2018-12-04T02:51:56.802Z,83.83
2018-12-04T02:54:27.524Z,83.51
2018-12-04T02:56:58.704Z,82.17
2018-12-04T02:59:29.269Z,82.85
2018-12-04T03:01:59.479Z,82.98
2018-12-04T03:04:30.541Z,84.72
2018-12-04T03:07:01.733Z,85.78
2018-12-04T03:09:31.855Z,86.91
2018-12-04T03:12:02.929Z,87.42
2018-12-04T03:14:34.459Z,88.14
2018-12-04T03:17:05.285Z,88.61
2018-12-04T03:19:35.867Z,89.50
2018-12-04T03:22:06.869Z,89.49
2018-12-04T03:24:37.085Z,89.98
2018-12-04T03:27:07.608Z,90.38
2018-12-04T03:29:37.895Z,90.21
2018-12-04T03:32:07.981Z,90.27
2018-12-04T03:34:39.153Z,90.50
2018-12-04T03:37:09.392Z,90.21
2018-12-04T03:39:40.248Z,90.15
2018-12-04T03:42:11.390Z,90.71
2018-12-04T03:44:42.238Z,90.41
2018-12-04T03:47:13.375Z,90.47
2018-12-04T03:49:43.522Z,90.19
2018-12-04T03:52:14.075Z,89.59
2018-12-04T03:54:44.123Z,89.52
2018-12-04T03:57:14.898Z,90.15
2018-12-04T03:59:45.529Z,90.12
2018-12-04T04:02:15.971Z,89.52
2018-12-04T04:04:46.106Z,88.94
2018-12-04T04:07:16.797Z,88.11
2018-12-04T04:09:46.990Z,86.95
2018-12-04T04:12:21.353Z,86.14
2018-12-04T04:14:52.447Z,86.22
2018-12-04T04:17:22.492Z,85.75
2018-12-04T04:19:53.034Z,85.37
2018-12-04T04:22:23.362Z,85.75
2018-12-04T04:24:53.894Z,85.04
2018-12-04T04:27:24.224Z,84.06
2018-12-04T04:29:54.918Z,83.69
2018-12-04T04:32:25.116Z,83.66
2018-12-04T04:34:55.306Z,82.53
2018-12-04T04:37:26.354Z,81.86
2018-12-04T04:39:56.513Z,81.54
2018-12-04T04:42:26.966Z,81.29
2018-12-04T04:44:58.209Z,80.91
2018-12-04T04:47:28.408Z,80.68
2018-12-04T04:49:59.162Z,80.00
2018-12-04T04:52:30.464Z,80.43
2018-12-04T04:55:03.645Z,80.22
2018-12-04T04:57:33.928Z,80.49
2018-12-04T05:00:05.382Z,80.30
2018-12-04T05:02:35.755Z,79.98
2018-12-04T05:05:06.332Z,79.63
2018-12-04T05:07:36.700Z,79.49
2018-12-04T05:10:14.656Z,79.31
2018-12-04T05:12:44.915Z,78.97
2018-12-04T05:15:15.346Z,79.14
2018-12-04T05:17:48.477Z,79.01
2018-12-04T05:20:18.575Z,79.15
2018-12-04T05:22:49.139Z,79.08
2018-12-04T05:25:19.371Z,79.14
2018-12-04T05:27:49.714Z,79.04
2018-12-04T05:30:20.100Z,79.02
2018-12-04T05:32:50.026Z,78.61
2018-12-04T05:35:20.250Z,78.34
2018-12-04T05:37:50.611Z,78.35
2018-12-04T05:40:20.675Z,77.91
2018-12-04T05:42:50.929Z,77.72
2018-12-04T05:45:21.627Z,77.13
2018-12-04T05:47:51.560Z,76.93
2018-12-04T05:50:21.592Z,76.32
2018-12-04T05:54:00.849Z,76.03
2018-12-04T05:56:31.308Z,76.02
2018-12-04T05:59:01.949Z,75.70
2018-12-04T06:01:31.829Z,75.46
2018-12-04T06:04:02.027Z,75.93
2018-12-04T06:06:32.470Z,75.11
2018-12-04T06:09:03.713Z,75.45
2018-12-04T06:11:34.748Z,75.59
2018-12-04T06:14:05.278Z,75.74
2018-12-04T06:16:35.487Z,76.39
2018-12-04T06:19:05.916Z,75.48
2018-12-04T06:21:36.695Z,75.87
2018-12-04T06:24:07.322Z,76.60
2018-12-04T06:26:37.908Z,77.19
2018-12-04T06:29:08.467Z,77.35
2018-12-04T06:31:38.778Z,77.91
2018-12-04T06:34:09.421Z,78.18
2018-12-04T06:36:39.873Z,78.41
2018-12-04T06:39:10.371Z,78.72
2018-12-04T06:41:40.780Z,78.82
2018-12-04T06:44:11.203Z,78.80
2018-12-04T06:46:41.085Z,78.96
2018-12-04T06:49:11.127Z,79.28
2018-12-04T06:51:41.537Z,79.27
2018-12-04T06:54:11.309Z,79.24
2018-12-04T06:56:41.665Z,78.83
2018-12-04T06:59:12.321Z,78.58
2018-12-04T07:01:42.968Z,78.25
2018-12-04T07:04:13.155Z,78.10
2018-12-04T07:06:45.142Z,77.48
2018-12-04T07:09:16.230Z,77.18
2018-12-04T07:11:46.343Z,77.20
2018-12-04T07:14:17.067Z,77.07
2018-12-04T07:16:47.049Z,76.61
2018-12-04T07:19:17.044Z,75.93
2018-12-04T07:21:47.171Z,75.66
2018-12-04T07:24:17.357Z,75.21
2018-12-04T07:26:47.615Z,75.07
2018-12-04T07:29:18.608Z,75.32
2018-12-04T07:31:48.787Z,74.98
2018-12-04T07:34:19.605Z,75.06
2018-12-04T07:36:51.581Z,75.16
2018-12-04T07:39:22.784Z,74.43
2018-12-04T07:41:55.215Z,74.36
2018-12-04T07:44:25.732Z,73.74
2018-12-04T07:46:56.788Z,73.85
2018-12-04T07:49:28.191Z,73.68
2018-12-04T07:51:59.072Z,73.21
2018-12-04T07:54:31.230Z,73.32
2018-12-04T07:57:01.518Z,73.25
2018-12-04T07:59:32.553Z,72.89
2018-12-04T08:02:02.981Z,72.90
2018-12-04T08:04:34.701Z,72.79
2018-12-04T08:07:04.998Z,72.41
2018-12-04T08:09:36.645Z,72.54
2018-12-04T08:12:06.599Z,71.46
2018-12-04T08:14:36.924Z,71.19
2018-12-04T08:17:07.967Z,70.77
2018-12-04T08:19:39.175Z,70.35
2018-12-04T08:22:09.547Z,70.08
2018-12-04T08:24:40.131Z,70.15
2018-12-04T08:27:12.372Z,69.29
2018-12-04T08:29:42.853Z,69.06
2018-12-04T08:32:13.201Z,69.29
2018-12-04T08:34:44.113Z,69.13
2018-12-04T08:37:15.211Z,69.09
2018-12-04T08:39:46.160Z,69.77
2018-12-04T08:42:17.631Z,69.75
2018-12-04T08:49:07.642Z,69.98
2018-12-04T08:51:37.667Z,69.64
2018-12-04T08:54:07.895Z,69.93
2018-12-04T08:56:39.996Z,69.52
2018-12-04T08:59:10.164Z,69.64
2018-12-04T09:01:40.573Z,68.72
2018-12-04T09:04:11.481Z,69.16
2018-12-04T09:06:41.509Z,68.52
2018-12-04T09:09:12.821Z,68.35
2018-12-04T09:11:42.941Z,68.31
2018-12-04T09:14:13.736Z,69.30
2018-12-04T09:16:43.840Z,68.10
2018-12-04T09:19:14.366Z,68.04
2018-12-04T09:21:44.670Z,68.21
2018-12-04T09:24:15.157Z,67.64
2018-12-04T09:26:45.331Z,67.22
2018-12-04T09:29:15.994Z,65.91
2018-12-04T09:31:46.379Z,65.92
2018-12-04T09:34:17.070Z,65.56
2018-12-04T09:36:47.208Z,65.12
2018-12-04T09:39:17.390Z,65.67
2018-12-04T09:41:47.749Z,65.52
2018-12-04T09:44:20.560Z,65.00
2018-12-04T09:46:51.636Z,65.48
2018-12-04T09:49:21.528Z,65.98
2018-12-04T09:51:51.950Z,66.22
2018-12-04T09:54:21.770Z,66.40
2018-12-04T09:56:53.223Z,66.20
2018-12-04T09:59:26.174Z,66.31
2018-12-04T10:01:56.540Z,66.62
2018-12-04T10:04:29.691Z,66.22
2018-12-04T10:06:59.781Z,66.32
2018-12-04T10:09:30.420Z,65.74
2018-12-04T10:12:02.131Z,65.92
2018-12-04T10:14:32.179Z,65.34
2018-12-04T10:17:02.387Z,65.15
2018-12-04T10:19:32.668Z,62.93
2018-12-04T10:22:06.488Z,62.94
2018-12-04T10:24:38.262Z,63.50
2018-12-04T10:27:08.384Z,62.67
2018-12-04T10:29:38.759Z,63.25
2018-12-04T10:32:09.404Z,63.14
2018-12-04T10:34:39.412Z,62.68
2018-12-04T10:37:09.620Z,62.07
2018-12-04T10:39:40.349Z,62.49
2018-12-04T10:42:10.567Z,63.22
2018-12-04T10:44:41.126Z,62.97
2018-12-04T10:47:11.806Z,63.64
2018-12-04T10:49:41.830Z,64.35
2018-12-04T10:52:11.667Z,64.04
2018-12-04T10:54:41.791Z,61.82
2018-12-04T10:57:12.038Z,61.55
2018-12-04T10:59:42.195Z,60.87
2018-12-04T11:02:17.246Z,61.32
2018-12-04T11:04:47.109Z,60.51
2018-12-04T11:07:17.194Z,60.30
2018-12-04T11:09:47.589Z,61.13
2018-12-04T11:12:18.410Z,59.69
2018-12-04T11:14:49.772Z,59.42
2018-12-04T11:17:19.656Z,58.90
2018-12-04T11:19:49.681Z,58.57
2018-12-04T11:22:20.320Z,58.49
2018-12-04T11:24:50.214Z,58.96
2018-12-04T11:27:20.432Z,59.49
2018-12-04T11:29:50.879Z,60.23
2018-12-04T11:32:21.046Z,60.29
2018-12-04T11:34:51.227Z,59.89
2018-12-04T11:37:21.701Z,59.72
2018-12-04T11:39:52.633Z,60.35
2018-12-04T11:42:22.633Z,61.60
2018-12-04T11:44:52.884Z,61.42
2018-12-04T11:47:23.240Z,62.21
2018-12-04T11:49:53.073Z,62.49
2018-12-04T11:52:23.251Z,62.74
2018-12-04T11:54:54.354Z,62.38
2018-12-04T11:57:24.349Z,62.13
2018-12-04T11:59:54.971Z,61.22
2018-12-04T12:02:24.989Z,60.80
2018-12-04T12:04:55.520Z,60.80
2018-12-04T12:07:25.895Z,60.31
2018-12-04T12:09:55.885Z,60.34
2018-12-04T12:12:25.728Z,59.70
2018-12-04T12:14:55.934Z,59.59
2018-12-04T12:22:55.588Z,55.61
2018-12-04T12:25:26.063Z,55.49
2018-12-04T12:27:56.270Z,55.20
2018-12-04T12:30:27.008Z,55.55
2018-12-04T12:32:58.283Z,56.14
2018-12-04T12:35:29.945Z,56.16
2018-12-04T12:38:00.904Z,56.22
2018-12-04T12:40:31.936Z,56.57
2018-12-04T12:43:01.895Z,55.79
2018-12-04T12:45:31.918Z,55.37
2018-12-04T12:48:02.265Z,55.36
2018-12-04T12:50:32.451Z,55.34
2018-12-04T12:53:02.832Z,55.33
2018-12-04T12:55:33.800Z,55.08
2018-12-04T12:58:04.814Z,54.36
2018-12-04T13:00:36.218Z,54.13
2018-12-04T13:03:06.273Z,54.90
2018-12-04T13:05:41.492Z,54.70
2018-12-04T13:08:20.072Z,55.26
2018-12-04T13:10:53.455Z,55.51
2018-12-04T13:13:29.116Z,56.25
2018-12-04T13:16:01.566Z,56.58
2018-12-04T13:18:31.930Z,56.78
2018-12-04T13:21:02.188Z,56.97
2018-12-04T13:23:32.197Z,56.90
2018-12-04T13:26:03.455Z,57.97
2018-12-04T13:28:33.493Z,58.65
2018-12-04T13:31:04.201Z,58.08
2018-12-04T13:33:34.082Z,58.25
2018-12-04T13:36:08.790Z,57.98
2018-12-04T13:38:39.919Z,56.46
2018-12-04T13:41:13.192Z,56.57
2018-12-04T13:43:43.196Z,55.59
2018-12-04T13:46:13.874Z,55.55
2018-12-04T13:48:43.767Z,55.54
2018-12-04T13:51:14.395Z,55.79
2018-12-04T13:53:44.713Z,55.69
2018-12-04T13:56:14.836Z,56.22
2018-12-04T13:58:48.970Z,60.72
2018-12-04T14:01:19.289Z,63.31
2018-12-04T14:03:49.281Z,65.40
2018-12-04T14:06:19.433Z,65.74
2018-12-04T14:08:49.410Z,65.94
2018-12-04T14:11:19.938Z,65.32
2018-12-04T14:13:50.094Z,64.67
2018-12-04T14:16:20.489Z,63.71
2018-12-04T14:18:51.345Z,62.20
2018-12-04T14:21:22.280Z,61.94
2018-12-04T14:23:52.776Z,61.47
2018-12-04T14:26:22.653Z,61.48
2018-12-04T14:28:52.760Z,61.02
2018-12-04T14:31:22.894Z,60.59
2018-12-04T14:33:53.361Z,60.51
2018-12-04T14:36:23.807Z,61.09
2018-12-04T14:38:54.811Z,61.44
2018-12-04T14:41:25.669Z,61.61
2018-12-04T14:43:55.681Z,61.98
2018-12-04T14:46:26.583Z,61.86
2018-12-04T14:48:56.551Z,61.95
2018-12-04T14:51:26.567Z,62.11
2018-12-04T14:53:56.511Z,61.75
2018-12-04T14:56:27.788Z,61.56
2018-12-04T14:58:58.045Z,60.97
2018-12-04T15:01:29.682Z,60.82
2018-12-04T15:04:01.417Z,60.73
2018-12-04T15:06:33.741Z,60.90
2018-12-04T15:09:06.079Z,61.01
2018-12-04T15:11:36.573Z,60.62
2018-12-04T15:14:06.783Z,61.14
2018-12-04T15:16:37.314Z,60.82
2018-12-04T15:19:07.247Z,61.17
2018-12-04T15:21:37.225Z,61.17
2018-12-04T15:24:11.376Z,61.58
2018-12-04T15:26:42.052Z,61.69
2018-12-04T15:29:14.419Z,62.11
2018-12-04T15:31:44.620Z,63.00
2018-12-04T15:34:14.746Z,63.15
2018-12-04T15:36:45.228Z,63.24
2018-12-04T15:39:17.475Z,63.57
2018-12-04T15:41:48.439Z,64.13
2018-12-04T15:44:19.254Z,64.03
2018-12-04T15:46:52.838Z,64.32
2018-12-04T15:49:23.381Z,64.90
2018-12-04T15:51:54.854Z,65.28
2018-12-04T15:54:26.326Z,65.47
2018-12-04T15:56:57.979Z,65.70
2018-12-04T15:59:29.576Z,66.08
2018-12-04T16:02:08.902Z,65.98
2018-12-04T16:04:45.454Z,66.13
2018-12-04T16:07:27.927Z,66.27
2018-12-04T16:12:41.451Z,66.60
2018-12-04T16:15:11.570Z,66.70
2018-12-04T16:17:43.684Z,66.61
2018-12-04T16:20:15.845Z,66.73
2018-12-04T16:22:46.411Z,66.50
2018-12-04T16:25:18.205Z,66.74
2018-12-04T16:27:48.950Z,66.53
2018-12-04T16:33:02.929Z,66.62
2018-12-04T16:35:33.061Z,66.36
2018-12-04T16:38:03.126Z,66.29
2018-12-04T16:40:33.785Z,66.33
2018-12-04T16:43:04.590Z,65.98
2018-12-04T16:45:34.959Z,65.74
2018-12-04T16:48:05.123Z,65.61
2018-12-04T16:50:35.541Z,65.86
2018-12-04T16:53:05.992Z,66.25
2018-12-04T16:55:36.558Z,66.08
2018-12-04T16:58:06.988Z,66.21
2018-12-04T17:00:38.465Z,66.51
2018-12-04T17:03:10.232Z,66.33
2018-12-04T17:05:40.231Z,66.46
2018-12-04T17:08:10.798Z,66.58
2018-12-04T17:10:41.007Z,66.35
2018-12-04T17:13:11.201Z,66.71
2018-12-04T17:15:41.311Z,66.88
2018-12-04T17:18:13.629Z,66.80
2018-12-04T17:20:44.863Z,66.78
2018-12-04T17:23:14.910Z,67.25
2018-12-04T17:25:45.859Z,67.16
2018-12-04T17:28:18.724Z,67.45
2018-12-04T17:30:50.628Z,67.71
2018-12-04T17:33:22.655Z,67.86
2018-12-04T17:35:53.221Z,67.95
2018-12-04T17:38:23.233Z,68.34
2018-12-04T17:40:53.305Z,68.19
2018-12-04T17:43:24.078Z,68.21
2018-12-04T17:45:54.058Z,68.66
2018-12-04T17:48:25.401Z,68.45
2018-12-04T17:50:55.947Z,68.30
2018-12-04T17:53:27.437Z,68.52
2018-12-04T17:55:58.721Z,68.21
2018-12-04T17:58:30.303Z,68.05
2018-12-04T18:01:00.873Z,68.70
2018-12-04T18:03:31.268Z,68.41
2018-12-04T18:06:04.405Z,68.80
2018-12-04T18:08:37.653Z,68.41
2018-12-04T18:11:19.795Z,68.80
2018-12-04T18:14:04.227Z,68.89
2018-12-04T18:16:35.712Z,69.30
2018-12-04T18:19:09.804Z,70.09
2018-12-04T18:21:42.182Z,69.95
2018-12-04T18:24:16.747Z,70.43
2018-12-04T18:26:48.140Z,70.67
2018-12-04T18:29:19.970Z,71.30
2018-12-04T18:31:49.951Z,72.21
2018-12-04T18:34:20.084Z,72.84
2018-12-04T18:36:50.464Z,73.40
2018-12-04T18:39:20.440Z,73.93
2018-12-04T18:41:50.636Z,73.69
2018-12-04T18:44:21.384Z,73.78
2018-12-04T18:46:51.636Z,73.47
2018-12-04T18:49:21.729Z,73.31
2018-12-04T18:51:52.688Z,73.36
2018-12-04T18:54:22.864Z,73.04
2018-12-04T18:56:53.665Z,73.53
2018-12-04T18:59:24.085Z,73.46
2018-12-04T19:01:54.057Z,73.82
2018-12-04T19:04:24.200Z,74.03
2018-12-04T19:06:54.682Z,74.08
2018-12-04T19:09:25.865Z,74.21
2018-12-04T19:11:56.262Z,74.31
2018-12-04T19:14:26.173Z,74.28
2018-12-04T19:16:56.515Z,74.30
2018-12-04T19:19:27.254Z,74.27
2018-12-04T19:21:57.291Z,74.47
2018-12-04T19:24:27.262Z,74.21
2018-12-04T19:26:58.350Z,74.42
2018-12-04T19:29:29.205Z,74.55
2018-12-04T19:31:59.698Z,74.65
2018-12-04T19:34:31.356Z,74.51
2018-12-04T19:37:03.360Z,74.43
2018-12-04T19:39:35.058Z,75.06
2018-12-04T19:42:05.746Z,74.70
2018-12-04T19:44:36.445Z,75.08
2018-12-04T19:47:08.550Z,74.77
2018-12-04T19:49:40.184Z,74.59
2018-12-04T19:52:10.521Z,74.48
2018-12-04T19:54:42.815Z,74.60
2018-12-04T19:57:12.996Z,74.50
2018-12-04T19:59:43.308Z,74.48
2018-12-04T20:02:13.942Z,74.14
2018-12-04T20:04:43.917Z,74.38
2018-12-04T20:07:14.915Z,74.49
2018-12-04T20:09:45.640Z,74.58
2018-12-04T20:12:18.987Z,74.64
2018-12-04T20:14:50.326Z,74.70
2018-12-04T20:17:20.371Z,75.20
2018-12-04T20:19:51.276Z,74.87
2018-12-04T20:22:21.987Z,74.78
2018-12-04T20:24:53.266Z,74.65
2018-12-04T20:27:23.679Z,74.54
2018-12-04T20:29:54.091Z,75.13
2018-12-04T20:32:25.585Z,74.98
2018-12-04T20:34:55.553Z,74.66
2018-12-04T20:37:25.549Z,74.74
2018-12-04T20:39:56.879Z,74.74
2018-12-04T20:42:26.807Z,75.36
2018-12-04T20:44:57.819Z,75.52
2018-12-04T20:47:27.701Z,74.92
2018-12-04T20:49:58.004Z,75.17
2018-12-04T20:52:27.972Z,75.17
2018-12-04T20:54:58.567Z,75.24
2018-12-04T20:57:28.498Z,74.99
2018-12-04T20:59:58.994Z,75.34
2018-12-04T21:02:29.042Z,75.31
2018-12-04T21:05:00.702Z,75.17
2018-12-04T21:07:30.750Z,75.31
2018-12-04T21:10:01.027Z,75.21
2018-12-04T21:12:32.089Z,75.61
2018-12-04T21:15:03.121Z,75.39
2018-12-04T21:17:33.328Z,75.39
2018-12-04T21:20:04.370Z,75.32
2018-12-04T21:22:35.980Z,75.60
2018-12-04T21:25:08.162Z,75.95
2018-12-04T21:27:43.055Z,75.88
2018-12-04T21:30:18.252Z,75.90
2018-12-04T21:32:53.159Z,76.01
2018-12-04T21:35:28.094Z,75.80
2018-12-04T21:38:04.097Z,76.10
2018-12-04T21:40:39.480Z,75.80
2018-12-04T21:43:14.487Z,75.81
2018-12-04T21:45:50.383Z,75.99
2018-12-04T21:48:24.201Z,75.72
2018-12-04T21:50:55.303Z,75.55
2018-12-04T21:53:26.091Z,75.63
2018-12-04T21:55:57.214Z,75.67
2018-12-04T21:58:29.967Z,75.72
2018-12-04T22:01:00.391Z,75.71
2018-12-04T22:03:31.079Z,75.64
2018-12-04T22:06:01.916Z,76.17
2018-12-04T22:08:32.419Z,75.85
2018-12-04T22:11:03.615Z,76.08
2018-12-04T22:13:34.194Z,75.93
2018-12-04T22:16:04.419Z,76.22
2018-12-04T22:18:35.003Z,76.45
2018-12-04T22:21:05.425Z,76.14
2018-12-04T22:23:36.148Z,75.92
2018-12-04T22:26:10.192Z,76.07
2018-12-04T22:28:40.360Z,75.42
2018-12-04T22:31:10.565Z,75.54
2018-12-04T22:33:41.478Z,75.84
2018-12-04T22:36:12.453Z,75.82
2018-12-04T22:38:42.742Z,75.56
2018-12-04T22:41:14.168Z,75.34
2018-12-04T22:43:44.531Z,76.00
2018-12-04T22:46:15.163Z,76.09
2018-12-04T22:48:45.588Z,75.80
2018-12-04T22:51:16.989Z,75.84
2018-12-04T22:53:46.864Z,75.73
2018-12-04T22:56:17.105Z,75.72
2018-12-04T22:58:47.479Z,75.83
2018-12-04T23:01:30.418Z,75.84
2018-12-04T23:04:00.708Z,76.52
2018-12-04T23:06:30.641Z,76.29
2018-12-04T23:09:00.588Z,76.10
2018-12-04T23:11:31.805Z,76.41
2018-12-04T23:14:01.827Z,76.37
2018-12-04T23:16:32.208Z,76.37
2018-12-04T23:19:02.912Z,76.72
2018-12-04T23:21:33.510Z,77.00
2018-12-04T23:24:03.892Z,76.97
2018-12-04T23:26:34.456Z,77.27
2018-12-04T23:29:06.027Z,77.35
2018-12-04T23:31:36.523Z,77.22
2018-12-04T23:34:07.367Z,77.50
2018-12-04T23:36:37.434Z,77.40
2018-12-04T23:39:09.527Z,77.49
2018-12-04T23:41:39.938Z,77.48
2018-12-04T23:44:10.100Z,77.75
2018-12-04T23:46:40.628Z,77.87
2018-12-04T23:49:12.300Z,77.63
2018-12-04T23:51:42.564Z,77.75
2018-12-04T23:54:13.314Z,77.60
2018-12-04T23:56:43.674Z,77.69
2018-12-04T23:59:13.707Z,77.87
